createdAt,value
2019-04-07T00:00:57.508Z,7.05
2019-04-07T00:03:29.815Z,7.00
2019-04-07T00:05:59.001Z,6.99
2019-04-07T00:08:29.674Z,7.03
2019-04-07T00:10:58.961Z,6.97
2019-04-07T00:13:29.384Z,7.00
2019-04-07T00:16:04.597Z,6.87
2019-04-07T00:18:36.346Z,6.85
2019-04-07T00:21:19.387Z,6.85
2019-04-07T00:23:49.492Z,6.72
2019-04-07T00:26:26.248Z,6.74
2019-04-07T00:28:53.150Z,6.67
2019-04-07T00:31:29.530Z,6.66
2019-04-07T00:34:00.483Z,6.60
2019-04-07T00:36:32.981Z,6.57
2019-04-07T00:39:06.895Z,6.55
2019-04-07T00:41:38.679Z,6.50
2019-04-07T00:44:08.054Z,6.39
2019-04-07T00:46:40.115Z,6.42
2019-04-07T00:49:13.268Z,6.38
2019-04-07T00:51:45.023Z,6.37
2019-04-07T00:54:25.773Z,6.29
2019-04-07T00:57:07.989Z,6.23
2019-04-07T00:59:40.815Z,6.28
2019-04-07T01:02:13.156Z,6.25
2019-04-07T01:04:46.022Z,6.11
2019-04-07T01:07:19.182Z,6.07
2019-04-07T01:09:48.420Z,6.15
2019-04-07T01:12:21.526Z,6.12
2019-04-07T01:15:00.593Z,6.02
2019-04-07T01:17:31.937Z,5.92
2019-04-07T01:20:06.142Z,5.91
2019-04-07T01:22:39.773Z,5.82
2019-04-07T01:25:13.070Z,5.90
2019-04-07T01:27:42.412Z,5.88
2019-04-07T01:30:14.259Z,5.98
2019-04-07T01:32:47.576Z,5.86
2019-04-07T01:35:19.145Z,5.93
2019-04-07T01:37:48.024Z,5.72
2019-04-07T01:40:21.410Z,5.68
2019-04-07T01:43:06.475Z,5.81
2019-04-07T01:45:48.844Z,5.82
2019-04-07T01:48:43.283Z,5.99
2019-04-07T01:51:41.041Z,5.79
2019-04-07T01:54:31.884Z,5.81
2019-04-07T01:57:18.372Z,5.78
2019-04-07T02:00:24.983Z,5.58
2019-04-07T02:03:08.914Z,5.59
2019-04-07T02:06:02.738Z,5.57
2019-04-07T02:08:49.355Z,5.54
2019-04-07T02:11:24.355Z,5.43
2019-04-07T02:14:01.697Z,5.54
2019-04-07T02:16:38.189Z,5.44
2019-04-07T02:19:19.372Z,5.41
2019-04-07T02:21:59.177Z,5.36
2019-04-07T02:24:47.099Z,5.29
2019-04-07T02:27:23.090Z,5.22
2019-04-07T02:29:59.980Z,5.32
2019-04-07T02:32:46.872Z,5.34
2019-04-07T02:35:43.970Z,5.29
2019-04-07T02:38:23.082Z,5.28
2019-04-07T02:41:04.243Z,5.34
2019-04-07T02:43:50.482Z,5.27
2019-04-07T02:46:41.450Z,5.27
2019-04-07T02:49:44.438Z,5.31
2019-04-07T02:52:43.134Z,5.17
2019-04-07T02:55:40.770Z,5.22
2019-04-07T02:58:20.460Z,5.16
2019-04-07T03:01:27.758Z,5.23
2019-04-07T03:04:07.387Z,5.22
2019-04-07T03:06:51.879Z,5.19
2019-04-07T03:09:31.080Z,5.26
2019-04-07T03:12:08.620Z,5.13
2019-04-07T03:14:47.644Z,5.13
2019-04-07T03:17:41.848Z,5.18
2019-04-07T03:20:36.173Z,5.18
2019-04-07T03:23:23.145Z,5.18
2019-04-07T03:26:16.783Z,5.03
2019-04-07T03:29:03.511Z,5.09
2019-04-07T03:31:40.672Z,4.95
2019-04-07T03:34:33.471Z,4.97
2019-04-07T03:37:22.869Z,5.08
2019-04-07T03:40:15.195Z,4.90
2019-04-07T03:43:01.634Z,4.63
2019-04-07T03:45:45.525Z,4.66
2019-04-07T03:48:51.764Z,4.71
2019-04-07T03:51:43.692Z,4.74
2019-04-07T03:54:24.229Z,4.72
2019-04-07T03:57:11.215Z,4.68
2019-04-07T03:59:49.878Z,4.59
2019-04-07T04:02:36.558Z,4.73
2019-04-07T04:05:24.259Z,4.71
2019-04-07T04:08:02.194Z,4.52
2019-04-07T04:10:37.346Z,4.32
2019-04-07T04:13:21.799Z,4.56
2019-04-07T04:15:57.215Z,4.53
2019-04-07T04:18:26.386Z,4.43
2019-04-07T04:20:57.154Z,4.64
2019-04-07T04:23:26.243Z,4.40
2019-04-07T04:25:55.682Z,4.33
2019-04-07T04:28:24.807Z,4.38
2019-04-07T04:30:53.862Z,4.34
2019-04-07T04:33:23.522Z,4.34
2019-04-07T04:35:52.366Z,4.32
2019-04-07T04:38:21.173Z,4.34
2019-04-07T04:40:50.601Z,4.40
2019-04-07T04:43:19.864Z,4.21
2019-04-07T04:45:48.703Z,4.40
2019-04-07T04:48:17.609Z,4.21
2019-04-07T04:50:47.135Z,4.28
2019-04-07T04:53:17.116Z,4.36
2019-04-07T04:56:05.581Z,4.31
2019-04-07T04:58:34.873Z,4.28
2019-04-07T05:01:04.474Z,4.26
2019-04-07T05:03:33.867Z,4.25
2019-04-07T05:06:03.661Z,4.26
2019-04-07T05:08:32.810Z,4.21
2019-04-07T05:11:01.683Z,4.17
2019-04-07T05:13:30.767Z,4.29
2019-04-07T05:15:59.619Z,4.50
2019-04-07T05:18:29.003Z,4.48
2019-04-07T05:20:58.220Z,4.51
2019-04-07T05:23:26.998Z,4.59
2019-04-07T05:25:55.803Z,4.56
2019-04-07T05:28:24.615Z,4.44
2019-04-07T05:30:53.424Z,4.59
2019-04-07T05:33:22.106Z,4.77
2019-04-07T05:35:51.631Z,4.75
2019-04-07T05:38:21.132Z,4.70
2019-04-07T05:40:50.140Z,4.91
2019-04-07T05:43:19.297Z,4.88
2019-04-07T05:45:48.827Z,4.98
2019-04-07T05:48:20.146Z,5.07
2019-04-07T05:50:48.847Z,5.17
2019-04-07T05:53:17.568Z,5.28
2019-04-07T05:55:47.555Z,5.28
2019-04-07T05:58:16.327Z,5.29
2019-04-07T06:00:46.968Z,5.41
2019-04-07T06:03:16.414Z,5.44
2019-04-07T06:05:48.263Z,5.62
2019-04-07T06:08:24.611Z,5.75
2019-04-07T06:10:46.481Z,5.91
2019-04-07T06:13:15.761Z,6.04
2019-04-07T06:15:44.750Z,6.13
2019-04-07T06:18:13.794Z,6.28
2019-04-07T06:20:45.327Z,6.40
2019-04-07T06:23:13.063Z,6.49
2019-04-07T06:25:43.556Z,6.59
2019-04-07T06:28:16.232Z,6.69
2019-04-07T06:30:43.998Z,6.86
2019-04-07T06:33:13.389Z,7.05
2019-04-07T06:35:44.964Z,7.19
2019-04-07T06:38:13.523Z,7.31
2019-04-07T06:40:42.272Z,7.62
2019-04-07T06:43:11.143Z,7.68
2019-04-07T06:46:04.925Z,7.77
2019-04-07T06:48:38.044Z,7.92
2019-04-07T06:51:13.897Z,8.09
2019-04-07T06:54:02.303Z,8.26
2019-04-07T06:56:49.025Z,8.52
2019-04-07T06:59:35.539Z,8.79
2019-04-07T07:02:27.022Z,9.05
2019-04-07T07:05:16.781Z,9.05
2019-04-07T07:07:50.872Z,9.23
2019-04-07T07:10:42.822Z,9.43
2019-04-07T07:13:28.422Z,9.40
2019-04-07T07:16:05.202Z,9.57
2019-04-07T07:18:47.020Z,9.77
2019-04-07T07:21:24.502Z,9.82
2019-04-07T07:23:53.065Z,9.94
2019-04-07T07:26:21.985Z,10.02
2019-04-07T07:28:51.093Z,10.12
2019-04-07T07:31:22.794Z,10.19
2019-04-07T07:33:50.487Z,10.24
2019-04-07T07:36:21.430Z,10.29
2019-04-07T07:38:58.305Z,10.35
2019-04-07T07:41:22.388Z,10.46
2019-04-07T07:43:51.422Z,10.69
2019-04-07T07:46:22.403Z,10.76
2019-04-07T07:48:51.120Z,10.88
2019-04-07T07:51:20.305Z,10.95
2019-04-07T07:53:49.185Z,11.03
2019-04-07T07:56:17.932Z,11.05
2019-04-07T07:58:47.273Z,11.11
2019-04-07T08:01:17.727Z,11.26
2019-04-07T08:03:46.973Z,11.33
2019-04-07T08:06:16.096Z,11.36
2019-04-07T08:08:47.263Z,11.52
2019-04-07T08:11:16.691Z,11.53
2019-04-07T08:13:46.967Z,11.49
2019-04-07T08:16:16.397Z,11.52
2019-04-07T08:18:46.414Z,11.66
2019-04-07T08:21:18.397Z,11.67
2019-04-07T08:23:45.931Z,11.74
2019-04-07T08:26:15.864Z,11.89
2019-04-07T08:28:45.033Z,12.00
2019-04-07T08:31:17.772Z,12.10
2019-04-07T08:33:44.630Z,12.22
2019-04-07T08:36:14.214Z,12.18
2019-04-07T08:38:43.714Z,12.20
2019-04-07T08:41:15.427Z,12.23
2019-04-07T08:43:42.956Z,12.24
2019-04-07T08:46:12.052Z,12.25
2019-04-07T08:48:41.122Z,12.28
2019-04-07T08:51:10.129Z,12.37
2019-04-07T08:53:38.949Z,12.41
2019-04-07T08:56:08.865Z,12.60
2019-04-07T08:58:39.172Z,12.62
2019-04-07T09:01:08.610Z,12.72
2019-04-07T09:03:37.437Z,12.90
2019-04-07T09:06:07.243Z,13.03
2019-04-07T09:08:37.945Z,12.98
2019-04-07T09:11:13.099Z,13.06
2019-04-07T09:13:44.408Z,13.03
2019-04-07T09:16:31.249Z,13.22
2019-04-07T09:19:22.477Z,13.17
2019-04-07T09:22:08.304Z,13.24
2019-04-07T09:24:56.725Z,13.60
2019-04-07T09:27:54.082Z,13.50
2019-04-07T09:30:41.080Z,13.67
2019-04-07T09:33:34.743Z,13.67
2019-04-07T09:36:07.980Z,13.59
2019-04-07T09:39:08.060Z,13.87
2019-04-07T09:41:45.143Z,14.11
2019-04-07T09:44:42.109Z,14.06
2019-04-07T09:47:22.656Z,14.11
2019-04-07T09:50:07.020Z,14.09
2019-04-07T09:53:07.060Z,14.21
2019-04-07T09:55:56.841Z,14.15
2019-04-07T09:58:42.334Z,14.09
2019-04-07T10:01:27.766Z,14.35
2019-04-07T10:04:11.915Z,14.37
2019-04-07T10:07:02.670Z,14.55
2019-04-07T10:09:52.353Z,14.76
2019-04-07T10:12:43.617Z,14.70
2019-04-07T10:15:30.744Z,14.76
2019-04-07T10:18:30.507Z,15.02
2019-04-07T10:21:21.780Z,15.15
2019-04-07T10:24:16.919Z,15.34
2019-04-07T10:26:56.277Z,15.43
2019-04-07T10:29:41.318Z,15.48
2019-04-07T10:32:34.773Z,15.40
2019-04-07T10:35:22.431Z,15.44
2019-04-07T10:38:10.014Z,15.47
2019-04-07T10:41:13.044Z,15.62
2019-04-07T10:44:09.703Z,15.49
2019-04-07T10:47:03.803Z,15.57
2019-04-07T10:49:57.859Z,15.53
2019-04-07T10:52:35.995Z,15.61
2019-04-07T10:55:15.437Z,15.89
2019-04-07T10:58:09.305Z,15.86
2019-04-07T11:00:50.907Z,15.89
2019-04-07T11:03:36.260Z,15.92
2019-04-07T11:06:23.846Z,15.92
2019-04-07T11:09:18.747Z,15.95
2019-04-07T11:12:07.507Z,16.01
2019-04-07T11:14:55.870Z,16.08
2019-04-07T11:17:31.576Z,16.33
2019-04-07T11:20:06.720Z,16.30
2019-04-07T11:22:54.195Z,16.46
2019-04-07T11:25:31.622Z,16.52
2019-04-07T11:28:18.796Z,16.65
2019-04-07T11:31:12.765Z,16.53
2019-04-07T11:33:50.252Z,16.63
2019-04-07T11:36:25.522Z,16.75
2019-04-07T11:39:12.210Z,16.84
2019-04-07T11:42:00.990Z,16.81
2019-04-07T11:44:44.180Z,16.80
2019-04-07T11:47:32.935Z,16.81
2019-04-07T11:50:23.752Z,16.87
2019-04-07T11:53:03.868Z,16.91
2019-04-07T11:55:51.982Z,16.80
2019-04-07T11:58:36.205Z,16.72
2019-04-07T12:01:27.143Z,16.56
2019-04-07T12:04:09.605Z,16.69
2019-04-07T12:07:00.089Z,16.67
2019-04-07T12:09:39.784Z,16.61
2019-04-07T12:12:29.972Z,16.71
2019-04-07T12:15:17.526Z,16.82
2019-04-07T12:18:00.308Z,17.01
2019-04-07T12:20:40.821Z,16.70
2019-04-07T12:23:23.389Z,16.67
2019-04-07T12:26:17.083Z,16.64
2019-04-07T12:29:00.493Z,16.80
2019-04-07T12:31:42.396Z,16.75
2019-04-07T12:34:18.980Z,16.66
2019-04-07T12:37:06.896Z,16.72
2019-04-07T12:39:50.924Z,16.91
2019-04-07T12:42:26.750Z,17.10
2019-04-07T12:45:01.801Z,17.22
2019-04-07T12:47:41.514Z,16.94
2019-04-07T12:50:26.304Z,17.03
2019-04-07T12:53:04.868Z,16.94
2019-04-07T12:56:00.784Z,16.86
2019-04-07T12:58:44.057Z,16.71
2019-04-07T13:01:22.885Z,16.77
2019-04-07T13:04:23.331Z,16.62
2019-04-07T13:06:59.379Z,16.51
2019-04-07T13:09:46.200Z,16.73
2019-04-07T13:12:46.654Z,16.86
2019-04-07T13:15:30.313Z,16.91
2019-04-07T13:18:18.752Z,17.02
2019-04-07T13:21:25.075Z,17.23
2019-04-07T13:24:06.186Z,17.36
2019-04-07T13:26:45.689Z,17.40
2019-04-07T13:29:33.777Z,17.28
2019-04-07T13:32:12.209Z,17.22
2019-04-07T13:35:09.200Z,17.04
2019-04-07T13:37:46.932Z,17.03
2019-04-07T13:40:31.782Z,17.19
2019-04-07T13:43:33.745Z,17.15
2019-04-07T13:46:31.353Z,17.30
2019-04-07T13:49:13.908Z,17.38
2019-04-07T13:52:08.554Z,17.38
2019-04-07T13:54:50.747Z,17.17
2019-04-07T13:57:27.664Z,17.36
2019-04-07T14:00:15.995Z,17.34
2019-04-07T14:02:58.730Z,17.44
2019-04-07T14:05:46.395Z,17.61
2019-04-07T14:08:41.551Z,17.43
2019-04-07T14:11:29.956Z,17.36
2019-04-07T14:14:21.139Z,17.25
2019-04-07T14:17:08.342Z,17.38
2019-04-07T14:19:59.486Z,17.45
2019-04-07T14:22:41.049Z,17.60
2019-04-07T14:25:18.050Z,17.52
2019-04-07T14:28:12.900Z,17.51
2019-04-07T14:31:02.020Z,17.55
2019-04-07T14:33:50.525Z,17.53
2019-04-07T14:36:30.058Z,17.73
2019-04-07T14:39:21.660Z,17.61
2019-04-07T14:42:06.009Z,17.40
2019-04-07T14:44:38.722Z,17.45
2019-04-07T14:47:19.810Z,17.52
2019-04-07T14:50:11.852Z,17.73
2019-04-07T14:52:56.754Z,17.81
2019-04-07T14:55:32.572Z,17.89
2019-04-07T14:58:25.831Z,17.82
2019-04-07T15:01:06.886Z,17.75
2019-04-07T15:03:35.268Z,17.62
2019-04-07T15:06:05.358Z,17.66
2019-04-07T15:08:46.286Z,17.88
2019-04-07T15:11:27.841Z,17.87
2019-04-07T15:13:58.737Z,18.03
2019-04-07T15:16:27.490Z,17.92
2019-04-07T15:18:56.599Z,17.75
2019-04-07T15:21:25.438Z,17.69
2019-04-07T15:23:54.280Z,17.45
2019-04-07T15:26:23.622Z,17.47
2019-04-07T15:28:52.668Z,17.27
2019-04-07T15:31:21.687Z,17.13
2019-04-07T15:33:50.932Z,17.16
2019-04-07T15:36:20.019Z,17.26
2019-04-07T15:38:49.661Z,17.17
2019-04-07T15:41:19.536Z,17.23
2019-04-07T15:43:48.903Z,17.05
2019-04-07T15:46:19.163Z,17.20
2019-04-07T15:48:48.697Z,17.23
2019-04-07T15:51:17.726Z,17.25
2019-04-07T15:53:51.485Z,17.04
2019-04-07T15:56:18.464Z,16.97
2019-04-07T15:58:48.361Z,17.04
2019-04-07T16:01:17.226Z,16.89
2019-04-07T16:03:50.511Z,16.84
2019-04-07T16:06:17.495Z,16.91
2019-04-07T16:08:46.869Z,16.81
2019-04-07T16:11:16.825Z,16.96
2019-04-07T16:13:46.312Z,16.82
2019-04-07T16:16:15.026Z,16.89
2019-04-07T16:18:45.327Z,16.91
2019-04-07T16:21:14.367Z,16.77
2019-04-07T16:23:43.144Z,16.65
2019-04-07T16:26:11.931Z,16.63
2019-04-07T16:28:41.346Z,16.65
2019-04-07T16:31:12.137Z,16.68
2019-04-07T16:33:41.046Z,16.47
2019-04-07T16:36:10.745Z,16.39
2019-04-07T16:38:39.648Z,16.48
2019-04-07T16:41:08.443Z,16.54
2019-04-07T16:43:38.156Z,16.56
2019-04-07T16:46:07.722Z,16.44
2019-04-07T16:48:39.999Z,16.40
2019-04-07T16:51:07.257Z,16.20
2019-04-07T16:53:38.039Z,16.13
2019-04-07T16:56:07.482Z,16.06
2019-04-07T16:58:38.514Z,16.01
2019-04-07T17:01:07.760Z,15.87
2019-04-07T17:03:36.831Z,15.91
2019-04-07T17:06:05.668Z,15.88
2019-04-07T17:08:34.396Z,15.92
2019-04-07T17:11:06.438Z,15.84
2019-04-07T17:13:40.802Z,15.82
2019-04-07T17:16:04.735Z,15.83
2019-04-07T17:18:41.637Z,15.78
2019-04-07T17:21:15.246Z,15.67
2019-04-07T17:23:45.505Z,15.56
2019-04-07T17:26:14.891Z,15.45
2019-04-07T17:28:45.175Z,15.30
2019-04-07T17:31:14.547Z,15.19
2019-04-07T17:33:43.475Z,15.10
2019-04-07T17:36:15.367Z,15.02
2019-04-07T17:38:56.384Z,14.96
2019-04-07T17:41:25.113Z,14.87
2019-04-07T17:44:02.794Z,14.86
2019-04-07T17:46:57.002Z,14.76
2019-04-07T17:49:36.463Z,14.52
2019-04-07T17:52:22.223Z,14.09
2019-04-07T17:55:00.039Z,13.77
2019-04-07T17:57:47.977Z,13.51
2019-04-07T18:00:36.277Z,13.21
2019-04-07T18:03:23.681Z,12.98
2019-04-07T18:06:01.851Z,12.70
2019-04-07T18:08:46.389Z,12.60
2019-04-07T18:11:43.405Z,12.42
2019-04-07T18:14:28.352Z,12.23
2019-04-07T18:17:18.513Z,11.96
2019-04-07T18:19:53.682Z,11.87
2019-04-07T18:22:51.653Z,11.69
2019-04-07T18:25:44.621Z,11.64
2019-04-07T18:28:23.893Z,11.55
2019-04-07T18:31:02.937Z,11.40
2019-04-07T18:33:51.627Z,11.34
2019-04-07T18:36:37.818Z,11.29
2019-04-07T18:39:36.856Z,11.21
2019-04-07T18:42:34.996Z,11.09
2019-04-07T18:45:15.923Z,10.92
2019-04-07T18:48:02.264Z,11.00
2019-04-07T18:50:43.309Z,10.79
2019-04-07T18:53:30.737Z,10.64
2019-04-07T18:56:14.091Z,10.56
2019-04-07T18:59:04.843Z,10.46
2019-04-07T19:01:55.953Z,10.35
2019-04-07T19:04:38.019Z,10.22
2019-04-07T19:07:16.886Z,10.18
2019-04-07T19:10:10.377Z,10.21
2019-04-07T19:13:03.107Z,10.12
2019-04-07T19:15:55.481Z,9.90
2019-04-07T19:18:42.753Z,9.75
2019-04-07T19:21:47.008Z,9.70
2019-04-07T19:24:37.842Z,9.78
2019-04-07T19:27:30.097Z,9.78
2019-04-07T19:30:15.297Z,9.61
2019-04-07T19:33:05.127Z,9.60
2019-04-07T19:35:44.547Z,9.58
2019-04-07T19:38:30.660Z,9.61
2019-04-07T19:41:31.516Z,9.63
2019-04-07T19:44:34.841Z,9.50
2019-04-07T19:47:22.769Z,9.39
2019-04-07T19:50:11.602Z,9.33
2019-04-07T19:52:51.756Z,9.36
2019-04-07T19:55:26.631Z,9.39
2019-04-07T19:58:15.241Z,9.27
2019-04-07T20:01:01.205Z,9.23
2019-04-07T20:03:46.092Z,9.14
2019-04-07T20:06:32.811Z,9.17
2019-04-07T20:09:19.645Z,9.11
2019-04-07T20:12:00.572Z,9.00
2019-04-07T20:15:03.052Z,8.87
2019-04-07T20:17:43.846Z,8.74
2019-04-07T20:20:43.496Z,8.72
2019-04-07T20:23:50.073Z,8.67
2019-04-07T20:26:50.960Z,8.74
2019-04-07T20:29:41.475Z,8.78
2019-04-07T20:32:13.119Z,8.63
2019-04-07T20:35:00.002Z,8.60
2019-04-07T20:37:35.261Z,8.50
2019-04-07T20:40:12.367Z,8.54
2019-04-07T20:42:48.385Z,8.53
2019-04-07T20:45:31.847Z,8.38
2019-04-07T20:48:31.587Z,8.26
2019-04-07T20:51:12.876Z,8.26
2019-04-07T20:53:51.432Z,8.33
2019-04-07T20:56:35.527Z,8.33
2019-04-07T20:59:30.490Z,8.32
2019-04-07T21:02:32.376Z,8.30
2019-04-07T21:05:22.397Z,8.08
2019-04-07T21:08:08.675Z,8.02
2019-04-07T21:10:43.706Z,8.18
2019-04-07T21:13:21.809Z,8.07
2019-04-07T21:16:08.774Z,8.03
2019-04-07T21:19:01.141Z,8.00
2019-04-07T21:21:46.746Z,8.01
2019-04-07T21:24:34.196Z,8.08
2019-04-07T21:27:14.267Z,8.09
2019-04-07T21:29:48.942Z,7.84
2019-04-07T21:32:51.372Z,7.52
2019-04-07T21:35:34.571Z,7.30
2019-04-07T21:38:21.537Z,7.29
2019-04-07T21:40:59.767Z,7.51
2019-04-07T21:43:38.712Z,7.52
2019-04-07T21:46:22.405Z,7.71
2019-04-07T21:49:15.699Z,7.71
2019-04-07T21:51:58.777Z,7.70
2019-04-07T21:54:45.727Z,7.80
2019-04-07T21:57:27.727Z,7.68
2019-04-07T22:00:20.871Z,7.53
2019-04-07T22:03:14.723Z,7.54
2019-04-07T22:05:59.398Z,7.46
2019-04-07T22:08:36.856Z,7.31
2019-04-07T22:11:05.831Z,7.45
2019-04-07T22:13:35.496Z,7.28
2019-04-07T22:16:05.880Z,7.06
2019-04-07T22:18:37.449Z,7.06
2019-04-07T22:21:05.352Z,7.16
2019-04-07T22:23:34.098Z,7.04
2019-04-07T22:26:03.226Z,7.04
2019-04-07T22:28:31.957Z,7.06
2019-04-07T22:31:01.488Z,7.08
2019-04-07T22:33:32.416Z,7.08
2019-04-07T22:36:01.819Z,7.04
2019-04-07T22:38:31.525Z,7.14
2019-04-07T22:41:00.635Z,6.80
2019-04-07T22:43:29.415Z,6.76
2019-04-07T22:46:07.816Z,6.80
2019-04-07T22:48:29.509Z,6.80
2019-04-07T22:50:58.838Z,6.84
2019-04-07T22:53:30.920Z,6.80
2019-04-07T22:55:59.096Z,6.81
2019-04-07T22:58:27.953Z,6.82
2019-04-07T23:00:57.179Z,6.66
2019-04-07T23:03:26.091Z,6.66
2019-04-07T23:05:55.462Z,6.73
2019-04-07T23:08:24.669Z,6.67
2019-04-07T23:10:53.413Z,6.67
2019-04-07T23:13:22.247Z,6.71
2019-04-07T23:15:51.150Z,6.44
2019-04-07T23:18:20.954Z,6.56
2019-04-07T23:20:49.733Z,6.46
2019-04-07T23:23:18.488Z,6.28
2019-04-07T23:25:47.322Z,6.43
2019-04-07T23:28:16.713Z,6.36
2019-04-07T23:30:46.063Z,6.41
2019-04-07T23:33:14.815Z,6.46
2019-04-07T23:35:43.573Z,6.45
2019-04-07T23:38:13.341Z,6.42
2019-04-07T23:40:42.444Z,6.31
2019-04-07T23:43:11.248Z,6.37
2019-04-07T23:45:39.997Z,6.24
2019-04-07T23:48:08.761Z,6.16
2019-04-07T23:50:37.607Z,6.13
2019-04-07T23:53:42.907Z,6.04
2019-04-07T23:56:12.152Z,6.12
2019-04-07T23:58:41.302Z,6.18
